Time;durP1;ratioP1;P1;durP2;ratioP2;P2;SDS_P1;SDS_P2;PMS_P1;PMS_P2;Temp;Humidity;BMP_temperature;BMP_pressure;BME280_temperature;BME280_humidity;BME280_pressure;Samples;Min_cycle;Max_cycle;Signal;HPM_P1;HPM_P2
2022/09/28 00:01:43;;;;;;;13.25;3.97;;;;;;;7.06;100.00;98154.91;4993310;28;20023;-80
2022/09/28 00:04:09;;;;;;;8.00;3.53;;;;;;;7.08;100.00;98158.03;4992662;28;20541;-81
2022/09/28 00:06:34;;;;;;;8.50;3.42;;;;;;;7.06;100.00;98148.69;4993612;28;20034;-81
2022/09/28 00:09:00;;;;;;;9.07;3.87;;;;;;;7.02;100.00;98154.03;4975665;28;20026;-81
2022/09/28 00:11:27;;;;;;;11.02;3.28;;;;;;;6.99;100.00;98154.75;4993392;28;20112;-81
2022/09/28 00:13:55;;;;;;;8.32;3.70;;;;;;;6.98;100.00;98155.09;4993441;28;20038;-81
2022/09/28 00:16:28;;;;;;;10.70;4.40;;;;;;;6.95;100.00;98145.78;4993512;28;20053;-83
2022/09/28 00:18:54;;;;;;;9.05;3.90;;;;;;;6.94;100.00;98152.34;4993074;28;20026;-81
2022/09/28 00:21:29;;;;;;;10.13;3.47;;;;;;;6.87;100.00;98147.56;4992838;28;20045;-80
2022/09/28 00:24:13;;;;;;;10.10;4.00;;;;;;;6.88;100.00;98143.72;4975560;28;20097;-81
2022/09/28 00:27:00;;;;;;;8.85;3.20;;;;;;;6.86;100.00;98140.59;4975649;28;20475;-81
2022/09/28 00:29:33;;;;;;;8.90;4.05;;;;;;;7.07;100.00;98140.22;4993228;28;20023;-81
2022/09/28 00:32:02;;;;;;;8.20;2.97;;;;;;;6.97;100.00;98145.44;4992965;28;20034;-81
2022/09/28 00:34:33;;;;;;;7.95;3.60;;;;;;;6.92;100.00;98143.81;4992783;28;20036;-80
2022/09/28 00:37:00;;;;;;;9.25;3.95;;;;;;;6.94;100.00;98139.59;4976149;28;20034;-81
2022/09/28 00:39:26;;;;;;;8.98;4.00;;;;;;;6.89;100.00;98139.13;4975193;28;20033;-81
2022/09/28 00:41:53;;;;;;;8.63;3.42;;;;;;;6.88;100.00;98140.22;4992626;28;20042;-80
2022/09/28 00:44:21;;;;;;;10.68;3.55;;;;;;;6.88;100.00;98132.09;4975319;28;20563;-80
2022/09/28 00:46:49;;;;;;;10.57;3.78;;;;;;;6.85;100.00;98128.19;4992380;28;20042;-80
2022/09/28 00:49:19;;;;;;;9.85;4.10;;;;;;;6.83;100.00;98124.28;4992472;28;20434;-81
2022/09/28 00:51:47;;;;;;;8.10;3.72;;;;;;;6.80;100.00;98125.00;4992695;28;20077;-82
2022/09/28 00:54:15;;;;;;;10.82;4.03;;;;;;;6.87;100.00;98131.31;4975499;28;20121;-83
2022/09/28 00:56:45;;;;;;;8.45;3.72;;;;;;;6.83;100.00;98121.59;4974923;28;20033;-81
2022/09/28 00:59:11;;;;;;;10.57;4.75;;;;;;;6.79;100.00;98108.00;4992215;28;20117;-80
2022/09/28 01:04:13;;;;;;;11.35;4.88;;;;;;;6.77;100.00;98117.63;5046297;22;20383;-81
2022/09/28 01:06:39;;;;;;;11.68;4.85;;;;;;;6.79;100.00;98124.22;5012246;28;20537;-80
2022/09/28 01:09:07;;;;;;;10.07;4.07;;;;;;;6.86;100.00;98124.34;4994400;28;20121;-81
2022/09/28 01:11:36;;;;;;;11.77;4.30;;;;;;;6.83;100.00;98114.25;4994507;28;20136;-80
2022/09/28 01:14:02;;;;;;;9.98;3.92;;;;;;;6.84;100.00;98123.16;5013961;28;20064;-79
2022/09/28 01:17:06;;;;;;;10.00;3.80;;;;;;;6.81;100.00;98115.75;4998408;28;20022;-79
2022/09/28 01:19:31;;;;;;;11.02;4.47;;;;;;;6.85;100.00;98109.25;4975555;28;20341;-79
2022/09/28 01:22:21;;;;;;;11.43;4.20;;;;;;;6.86;100.00;98110.03;4998430;28;20492;-79
2022/09/28 01:25:05;;;;;;;10.75;4.72;;;;;;;7.01;100.00;98109.16;5016162;28;20034;-80
2022/09/28 01:27:51;;;;;;;10.75;4.43;;;;;;;6.89;100.00;98110.13;4998092;28;20053;-78
2022/09/28 01:30:21;;;;;;;10.18;4.32;;;;;;;6.86;100.00;98110.03;4998280;28;20032;-79
2022/09/28 01:32:54;;;;;;;11.85;4.28;;;;;;;6.97;100.00;98112.97;4998384;28;20030;-79
2022/09/28 01:35:24;;;;;;;11.55;4.72;;;;;;;6.81;100.00;98110.34;4998129;28;20489;-79
2022/09/28 01:38:02;;;;;;;8.73;4.30;;;;;;;6.74;100.00;98105.59;5015717;28;20026;-79
2022/09/28 01:40:31;;;;;;;9.70;4.35;;;;;;;6.72;100.00;98107.06;5015872;28;20022;-79
2022/09/28 01:43:10;;;;;;;10.95;4.93;;;;;;;6.69;100.00;98111.28;5015346;28;20466;-79
2022/09/28 01:45:48;;;;;;;11.98;5.03;;;;;;;6.77;100.00;98104.88;4981690;28;20171;-79
2022/09/28 01:48:29;;;;;;;11.10;4.43;;;;;;;6.80;100.00;98112.28;4997556;28;20029;-79
2022/09/28 01:50:58;;;;;;;11.80;4.85;;;;;;;6.90;100.00;98103.59;5015503;28;20034;-79
2022/09/28 01:53:57;;;;;;;11.27;4.78;;;;;;;6.78;100.00;98111.84;5015525;28;20101;-79
2022/09/28 01:57:06;;;;;;;11.50;5.75;;;;;;;6.76;100.00;98111.44;4956167;28;20374;-79
2022/09/28 01:59:36;;;;;;;12.55;5.68;;;;;;;6.97;100.00;98110.25;5014002;28;20041;-79
2022/09/28 02:02:18;;;;;;;10.90;4.38;;;;;;;6.88;100.00;98110.47;4997464;28;20516;-79
2022/09/28 02:04:50;;;;;;;12.18;4.90;;;;;;;6.76;100.00;98108.72;5015143;28;20050;-78
2022/09/28 02:07:30;;;;;;;11.52;4.85;;;;;;;6.72;100.00;98104.38;4997529;28;20030;-79
2022/09/28 02:10:01;;;;;;;14.20;6.22;;;;;;;6.67;100.00;98105.44;4997162;28;20025;-78
2022/09/28 02:12:50;;;;;;;16.20;6.38;;;;;;;6.66;100.00;98095.78;4981631;28;20049;-78
2022/09/28 02:15:57;;;;;;;17.15;6.07;;;;;;;6.64;100.00;98100.75;5015020;28;20034;-79
2022/09/28 02:18:23;;;;;;;12.68;6.00;;;;;;;6.65;100.00;98113.13;4919359;29;20496;-78
2022/09/28 02:21:13;;;;;;;17.42;6.10;;;;;;;6.63;100.00;98107.31;4935497;29;20044;-79
2022/09/28 02:23:45;;;;;;;14.85;6.30;;;;;;;6.62;100.00;98116.56;4987574;28;20109;-79
2022/09/28 02:26:17;;;;;;;15.27;5.85;;;;;;;6.68;100.00;98107.00;5014026;28;20029;-79
2022/09/28 02:28:42;;;;;;;13.32;6.03;;;;;;;6.70;100.00;98112.84;5014612;28;20111;-79
2022/09/28 02:31:08;;;;;;;14.03;6.43;;;;;;;6.69;100.00;98118.59;5014559;28;20088;-79
2022/09/28 02:33:37;;;;;;;15.20;6.23;;;;;;;6.59;100.00;98109.94;5015026;28;20272;-79
2022/09/28 02:36:02;;;;;;;15.35;6.10;;;;;;;6.69;100.00;98105.09;4997016;28;20261;-79
2022/09/28 02:38:29;;;;;;;15.98;6.53;;;;;;;6.76;100.00;98110.66;5014559;28;20100;-78
2022/09/28 02:41:13;;;;;;;15.63;7.07;;;;;;;6.70;100.00;98110.13;4996664;28;20532;-79
2022/09/28 02:43:58;;;;;;;17.08;6.50;;;;;;;6.62;100.00;98113.84;5014767;28;20037;-78
2022/09/28 02:46:45;;;;;;;15.65;7.57;;;;;;;6.55;100.00;98119.09;5014868;28;20121;-78
2022/09/28 02:49:26;;;;;;;20.10;7.03;;;;;;;6.56;100.00;98118.00;5014227;28;20476;-78
2022/09/28 02:52:33;;;;;;;17.77;7.53;;;;;;;6.55;100.00;98113.69;4996888;28;20033;-79
2022/09/28 02:55:15;;;;;;;21.58;7.90;;;;;;;6.55;100.00;98135.31;4976564;28;20041;-78
2022/09/28 02:58:02;;;;;;;19.63;8.80;;;;;;;6.59;100.00;98123.47;5014409;28;20136;-78
2022/09/28 03:00:30;;;;;;;19.90;8.05;;;;;;;6.79;100.00;98124.22;5014504;28;20025;-78
2022/09/28 03:03:18;;;;;;;17.02;8.10;;;;;;;6.80;100.00;98128.50;5014294;28;20146;-78
2022/09/28 03:05:59;;;;;;;21.48;9.02;;;;;;;6.72;100.00;98117.88;5014291;28;20106;-78
2022/09/28 03:08:47;;;;;;;24.52;9.68;;;;;;;6.59;100.00;98122.69;4996928;28;20029;-79
2022/09/28 03:11:20;;;;;;;24.45;9.30;;;;;;;6.52;100.00;98130.63;4995547;28;20057;-78
2022/09/28 03:13:46;;;;;;;24.35;11.35;;;;;;;6.44;100.00;98107.31;4996440;28;20036;-79
2022/09/28 03:16:14;;;;;;;23.80;10.27;;;;;;;6.41;100.00;98118.84;4996350;28;20029;-78
2022/09/28 03:18:39;;;;;;;25.98;10.35;;;;;;;6.38;100.00;98111.41;5014006;28;20112;-78
2022/09/28 03:21:06;;;;;;;28.52;10.43;;;;;;;6.44;100.00;98123.53;5014044;28;20550;-79
2022/09/28 03:23:32;;;;;;;22.85;10.50;;;;;;;6.42;100.00;98104.19;4996055;28;20038;-79
2022/09/28 03:25:57;;;;;;;24.38;10.48;;;;;;;6.50;100.00;98111.28;5013825;28;20029;-78
2022/09/28 03:28:23;;;;;;;27.48;11.50;;;;;;;6.46;100.00;98111.22;5013527;28;20037;-78
2022/09/28 03:30:48;;;;;;;23.20;10.45;;;;;;;6.38;100.00;98117.59;5013780;28;20026;-79
2022/09/28 03:33:14;;;;;;;24.10;10.70;;;;;;;6.47;100.00;98122.81;4995723;28;20541;-79
2022/09/28 03:35:40;;;;;;;27.02;10.07;;;;;;;6.50;100.00;98122.88;5013896;28;20036;-79
2022/09/28 03:38:05;;;;;;;24.48;9.60;;;;;;;6.47;100.00;98125.53;4995474;28;20045;-79
2022/09/28 03:40:30;;;;;;;22.53;9.80;;;;;;;6.44;100.00;98124.31;4995834;28;20427;-79
2022/09/28 03:42:55;;;;;;;20.20;8.90;;;;;;;6.57;100.00;98127.66;5013100;28;20335;-78
2022/09/28 03:45:21;;;;;;;21.50;8.77;;;;;;;6.59;100.00;98126.16;4995781;28;20067;-79
2022/09/28 03:47:47;;;;;;;22.83;9.90;;;;;;;6.68;100.00;98123.22;5012973;28;20030;-79
2022/09/28 03:50:13;;;;;;;;;;;;;;;6.66;100.00;98122.81;5013507;28;20848;-78
2022/09/28 03:52:38;;;;;;;20.85;9.52;;;;;;;6.64;100.00;98122.38;5013533;28;19921;-79
2022/09/28 03:55:04;;;;;;;25.47;9.17;;;;;;;6.66;100.00;98120.09;4994954;28;20030;-78
2022/09/28 03:57:31;;;;;;;23.20;8.57;;;;;;;6.55;100.00;98124.50;5012453;28;20040;-79
2022/09/28 03:59:56;;;;;;;24.23;9.60;;;;;;;6.90;100.00;98119.03;5013453;28;20021;-79
2022/09/28 04:02:21;;;;;;;21.37;8.03;;;;;;;6.82;100.00;98115.41;5012742;28;20029;-78
2022/09/28 04:04:47;;;;;;;20.40;9.70;;;;;;;6.66;100.00;98117.41;4995261;28;20046;-79
2022/09/28 04:07:12;;;;;;;19.30;8.45;;;;;;;6.61;100.00;98121.19;4995148;28;20160;-79
2022/09/28 04:09:38;;;;;;;19.07;8.17;;;;;;;6.77;100.00;98123.81;4994857;28;20467;-79
2022/09/28 04:12:03;;;;;;;19.33;7.80;;;;;;;6.67;100.00;98132.50;5012576;28;20061;-79
2022/09/28 04:14:28;;;;;;;20.35;9.25;;;;;;;6.67;100.00;98123.59;4995167;28;20053;-79
2022/09/28 04:16:54;;;;;;;19.30;9.10;;;;;;;6.69;100.00;98121.31;5012747;28;20560;-79
2022/09/28 04:19:21;;;;;;;19.20;7.97;;;;;;;6.79;100.00;98124.22;5012993;28;20364;-78
2022/09/28 04:21:49;;;;;;;19.75;9.02;;;;;;;6.81;100.00;98132.00;4994932;28;20029;-78
2022/09/28 04:24:15;;;;;;;18.50;8.80;;;;;;;6.69;100.00;98130.22;4979190;28;20034;-79
2022/09/28 04:26:40;;;;;;;21.40;9.20;;;;;;;6.66;100.00;98122.81;4995090;28;20096;-78
2022/09/28 04:29:14;;;;;;;19.57;8.80;;;;;;;6.64;100.00;98127.81;4995085;28;20034;-78
2022/09/28 04:31:46;;;;;;;16.10;8.07;;;;;;;6.62;100.00;98125.44;5012675;28;20268;-78
2022/09/28 04:34:13;;;;;;;17.70;7.82;;;;;;;6.57;100.00;98139.28;5012676;28;20029;-79
2022/09/28 04:36:41;;;;;;;18.25;7.88;;;;;;;6.58;100.00;98143.53;5012935;28;20033;-79
2022/09/28 04:39:07;;;;;;;17.67;9.07;;;;;;;6.64;100.00;98135.91;4994900;28;20041;-78
2022/09/28 04:41:32;;;;;;;18.60;8.00;;;;;;;6.71;100.00;98143.38;5012758;28;20096;-79
2022/09/28 04:43:58;;;;;;;16.90;7.47;;;;;;;6.67;100.00;98137.91;4994967;28;20771;-80
2022/09/28 04:46:25;;;;;;;18.73;8.30;;;;;;;6.68;100.00;98134.06;5012584;28;20037;-80
2022/09/28 04:48:50;;;;;;;18.77;9.02;;;;;;;6.72;100.00;98134.13;5011958;28;20021;-80
2022/09/28 04:51:16;;;;;;;16.83;7.90;;;;;;;6.73;100.00;98131.09;5012783;28;20485;-80
2022/09/28 04:53:41;;;;;;;15.87;7.00;;;;;;;6.98;100.00;98128.06;5012239;28;20537;-80
2022/09/28 04:56:10;;;;;;;20.80;9.20;;;;;;;6.75;100.00;98125.31;5012129;28;20544;-80
2022/09/28 04:58:37;;;;;;;20.38;9.13;;;;;;;6.75;100.00;98128.81;5012616;28;20280;-80
2022/09/28 05:01:05;;;;;;;17.58;8.85;;;;;;;6.93;100.00;98129.91;4994592;28;20100;-80
2022/09/28 05:03:31;;;;;;;18.98;9.38;;;;;;;6.98;100.00;98130.75;5012104;28;20054;-79
2022/09/28 05:05:57;;;;;;;;;;;;;;;6.88;100.00;98118.59;5012499;28;20029;-80
2022/09/28 05:08:23;;;;;;;18.88;8.50;;;;;;;6.99;100.00;98132.31;5011979;28;19920;-80
2022/09/28 05:10:57;;;;;;;18.80;8.88;;;;;;;6.79;100.00;98131.56;5012162;28;20544;-80
2022/09/28 05:13:23;;;;;;;18.67;8.38;;;;;;;6.83;100.00;98130.47;5012535;28;20026;-79
2022/09/28 05:15:52;;;;;;;18.77;9.27;;;;;;;6.90;100.00;98125.22;5012680;28;20055;-79
2022/09/28 05:18:17;;;;;;;18.10;8.48;;;;;;;7.04;100.00;98130.09;5012090;28;20060;-79
2022/09/28 05:20:44;;;;;;;17.08;8.57;;;;;;;7.03;100.00;98133.16;4978272;28;20030;-78
2022/09/28 05:23:11;;;;;;;17.90;9.15;;;;;;;6.97;100.00;98135.38;4994083;28;20030;-78
2022/09/28 05:25:37;;;;;;;21.58;9.48;;;;;;;6.91;100.00;98129.50;5011887;28;20038;-79
2022/09/28 05:28:02;;;;;;;21.95;9.68;;;;;;;6.90;100.00;98125.22;5012229;28;20030;-78
2022/09/28 05:30:28;;;;;;;19.48;8.93;;;;;;;7.10;100.00;98130.59;5011628;28;20513;-78
2022/09/28 05:32:53;;;;;;;20.10;9.52;;;;;;;7.11;100.00;98134.88;5011601;28;20083;-78
2022/09/28 05:35:19;;;;;;;19.73;8.93;;;;;;;7.07;100.00;98124.00;5012333;28;20037;-78
2022/09/28 05:37:45;;;;;;;18.70;9.10;;;;;;;7.33;100.00;98125.97;5011947;28;20324;-78
2022/09/28 05:40:10;;;;;;;;;;;;;;;7.46;100.00;98115.75;4978165;28;20273;-78
2022/09/28 05:42:36;;;;;;;20.50;8.90;;;;;;;7.41;100.00;98116.84;5011819;28;19932;-78
2022/09/28 05:45:02;;;;;;;19.15;9.27;;;;;;;7.51;100.00;98124.34;5011605;28;20033;-78
2022/09/28 05:47:28;;;;;;;19.98;8.98;;;;;;;7.66;100.00;98128.06;4994265;28;20393;-78
2022/09/28 05:49:54;;;;;;;22.85;9.93;;;;;;;7.73;100.00;98116.56;5011612;28;20026;-78
2022/09/28 05:52:19;;;;;;;18.98;8.70;;;;;;;7.59;100.00;98119.06;5011534;28;20088;-78
2022/09/28 05:54:45;;;;;;;18.92;9.15;;;;;;;7.66;100.00;98111.81;5011607;28;20028;-78
2022/09/28 05:57:11;;;;;;;18.27;8.80;;;;;;;7.58;100.00;98120.97;5011592;28;20430;-78
2022/09/28 05:59:37;;;;;;;22.30;9.85;;;;;;;7.50;100.00;98122.78;5012124;28;20101;-78
2022/09/28 06:02:03;;;;;;;18.67;8.70;;;;;;;7.63;100.00;98125.31;5014649;28;20412;-78
2022/09/28 06:04:29;;;;;;;18.40;8.57;;;;;;;7.96;100.00;98120.00;5015454;28;20058;-78
2022/09/28 06:06:55;;;;;;;19.08;9.55;;;;;;;7.64;100.00;98124.94;5015679;28;20104;-78
2022/09/28 06:09:22;;;;;;;18.88;8.02;;;;;;;7.76;100.00;98126.66;5015743;28;20026;-78
2022/09/28 06:11:48;;;;;;;21.50;8.90;;;;;;;7.81;100.00;98129.06;5015732;28;20110;-78
2022/09/28 06:14:15;;;;;;;;;;;;;;;7.68;100.00;98135.81;4997850;28;20057;-81
2022/09/28 06:16:41;;;;;;;18.20;8.73;;;;;;;7.65;100.00;98139.25;4998145;28;19940;-80
2022/09/28 06:19:10;;;;;;;18.65;8.80;;;;;;;7.73;100.00;98140.94;4997791;28;20021;-81
2022/09/28 06:21:35;;;;;;;19.95;8.80;;;;;;;7.68;100.00;98146.66;5015046;28;20056;-81
2022/09/28 06:24:02;;;;;;;17.53;8.50;;;;;;;7.85;100.00;98138.03;5015112;28;20128;-81
2022/09/28 06:26:27;;;;;;;16.13;7.55;;;;;;;7.72;100.00;98145.56;4997593;28;20269;-80
2022/09/28 06:28:53;;;;;;;17.63;7.57;;;;;;;7.74;100.00;98142.50;4997344;28;20094;-80
2022/09/28 06:31:22;;;;;;;21.10;9.13;;;;;;;7.72;100.00;98147.50;5014735;28;20277;-80
2022/09/28 06:33:48;;;;;;;18.85;8.73;;;;;;;7.66;100.00;98155.16;5014755;28;20497;-80
2022/09/28 06:36:14;;;;;;;16.35;7.80;;;;;;;7.82;100.00;98157.72;5014660;28;20026;-80
2022/09/28 06:38:40;;;;;;;18.85;8.85;;;;;;;7.71;100.00;98162.19;5014943;28;20026;-81
2022/09/28 06:41:05;;;;;;;18.87;8.83;;;;;;;7.58;100.00;98160.81;5014730;28;20053;-80
2022/09/28 06:43:32;;;;;;;17.52;8.77;;;;;;;7.52;100.00;98171.16;5014318;28;20091;-80
2022/09/28 06:45:58;;;;;;;20.30;8.63;;;;;;;7.55;100.00;98165.78;5014479;28;20034;-80
2022/09/28 06:48:23;;;;;;;21.33;9.73;;;;;;;7.39;100.00;98173.28;4996750;28;20386;-80
2022/09/28 06:50:49;;;;;;;19.13;9.23;;;;;;;7.26;100.00;98171.88;4996789;28;20030;-80
2022/09/28 06:53:14;;;;;;;15.30;7.82;;;;;;;7.35;100.00;98169.72;4980699;28;20501;-80
2022/09/28 06:55:48;;;;;;;18.45;8.90;;;;;;;7.42;100.00;98175.25;4997364;28;20034;-80
2022/09/28 06:58:18;;;;;;;20.77;9.23;;;;;;;7.23;100.00;98180.72;5014690;28;20033;-79
2022/09/28 07:00:45;;;;;;;18.23;7.95;;;;;;;7.44;100.00;98180.31;4996761;28;20549;-78
2022/09/28 07:03:16;;;;;;;21.33;8.95;;;;;;;7.23;100.00;98186.91;4996377;28;20053;-78
2022/09/28 07:05:47;;;;;;;16.67;8.02;;;;;;;7.39;100.00;98189.53;4981030;28;20040;-79
2022/09/28 07:08:13;;;;;;;16.40;7.93;;;;;;;7.68;100.00;98184.56;5012654;28;20065;-79
2022/09/28 07:10:44;;;;;;;16.00;7.60;;;;;;;7.54;100.00;98185.91;5013772;28;20509;-79
2022/09/28 07:13:10;;;;;;;18.08;8.45;;;;;;;7.21;100.00;98183.75;5013629;28;20032;-79
2022/09/28 07:15:36;;;;;;;19.90;8.98;;;;;;;7.39;100.00;98194.94;4996480;28;20125;-79
2022/09/28 07:18:04;;;;;;;18.67;8.82;;;;;;;7.42;100.00;98196.16;4996263;28;20034;-79
2022/09/28 07:20:31;;;;;;;19.85;8.13;;;;;;;7.42;100.00;98199.63;4996502;28;20030;-78
2022/09/28 07:22:58;;;;;;;18.02;9.10;;;;;;;7.52;100.00;98204.44;5013876;28;20061;-79
2022/09/28 07:25:24;;;;;;;19.63;8.30;;;;;;;7.64;100.00;98205.41;5013819;28;20032;-79
2022/09/28 07:27:50;;;;;;;;;;;;;;;7.42;100.00;98210.47;5014615;28;20410;-79
2022/09/28 07:30:15;;;;;;;17.17;8.30;;;;;;;7.22;100.00;98212.44;5013860;28;19929;-78
2022/09/28 07:32:41;;;;;;;21.52;9.00;;;;;;;7.21;100.00;98212.75;4979973;28;20030;-78
2022/09/28 07:35:08;;;;;;;18.52;8.45;;;;;;;7.18;100.00;98211.56;5013260;28;20112;-79
2022/09/28 07:37:35;;;;;;;16.30;8.15;;;;;;;7.26;100.00;98217.13;4995834;28;20108;-79
2022/09/28 07:42:46;;;;;;;19.05;9.15;;;;;;;7.20;100.00;98220.09;5013476;28;20032;-78
2022/09/28 07:45:11;;;;;;;20.83;9.37;;;;;;;7.17;100.00;98233.56;5013837;28;20030;-78
2022/09/28 07:47:37;;;;;;;17.98;8.43;;;;;;;7.09;100.00;98234.59;5013876;28;20140;-79
2022/09/28 07:50:02;;;;;;;18.03;8.00;;;;;;;7.11;100.00;98238.50;4996097;28;20076;-79
2022/09/28 07:52:27;;;;;;;16.90;7.97;;;;;;;7.03;100.00;98238.69;4996080;28;20026;-79
2022/09/28 07:54:56;;;;;;;17.65;8.15;;;;;;;7.05;100.00;98239.13;5013649;28;20030;-78
2022/09/28 07:57:22;;;;;;;21.85;8.95;;;;;;;7.06;100.00;98246.13;4995450;28;20034;-79
2022/09/28 07:59:48;;;;;;;;;;;;;;;7.08;100.00;98247.34;4995707;28;20048;-78
2022/09/28 08:02:14;;;;;;;18.53;8.47;;;;;;;7.10;100.00;98255.09;5013612;28;19910;-79
2022/09/28 08:04:40;;;;;;;18.92;9.52;;;;;;;7.09;100.00;98253.53;5013287;28;20494;-80
2022/09/28 08:07:11;;;;;;;21.40;9.43;;;;;;;7.05;100.00;98249.94;5013511;28;20025;-79
2022/09/28 08:09:36;;;;;;;18.50;8.55;;;;;;;7.10;100.00;98255.09;5013284;28;20037;-79
2022/09/28 08:12:04;;;;;;;19.23;9.75;;;;;;;7.11;100.00;98253.94;4995752;28;20029;-79
2022/09/28 08:14:34;;;;;;;19.02;9.35;;;;;;;7.22;100.00;98258.44;5013371;28;20045;-78
2022/09/28 08:17:00;;;;;;;20.17;9.13;;;;;;;7.22;100.00;98265.75;5013915;28;20022;-79
2022/09/28 08:21:43;;;;;;;18.38;9.05;;;;;;;7.21;100.00;98264.97;5013953;28;20489;-78
2022/09/28 08:22:13;;;;;;;19.33;9.18;;;;;;;7.40;100.00;98258.00;5012798;28;20037;-78
2022/09/28 08:24:38;;;;;;;21.35;9.35;;;;;;;7.41;100.00;98254.94;4995106;28;20048;-79
2022/09/28 08:27:03;;;;;;;22.50;9.40;;;;;;;7.31;100.00;98258.22;5013429;28;20041;-78
2022/09/28 08:29:30;;;;;;;20.73;9.43;;;;;;;7.25;100.00;98270.47;5014538;28;20289;-79
2022/09/28 08:31:57;;;;;;;18.85;8.77;;;;;;;7.28;100.00;98269.75;5013246;28;20038;-78
2022/09/28 08:34:23;;;;;;;20.67;9.05;;;;;;;7.35;100.00;98269.88;5013445;28;20033;-78
2022/09/28 08:36:48;;;;;;;21.90;9.40;;;;;;;7.44;100.00;98278.59;5013413;28;20398;-78
2022/09/28 08:39:14;;;;;;;20.63;8.43;;;;;;;7.51;100.00;98273.28;4995460;28;20752;-78
2022/09/28 08:41:49;;;;;;;22.03;9.37;;;;;;;7.64;100.00;98275.84;5013046;28;20044;-79
2022/09/28 08:44:24;;;;;;;19.85;9.23;;;;;;;7.66;100.00;98273.56;4995717;28;20457;-78
2022/09/28 08:47:05;;;;;;;20.15;8.80;;;;;;;7.68;100.00;98279.38;4979744;28;20029;-79
2022/09/28 08:49:35;;;;;;;18.83;9.10;;;;;;;7.54;100.00;98288.81;4997766;28;20045;-78
2022/09/28 08:52:16;;;;;;;23.55;10.70;;;;;;;7.55;100.00;98278.75;5012987;28;20022;-79
2022/09/28 08:55:31;;;;;;;19.83;9.77;;;;;;;7.70;100.00;98290.66;5012763;28;20045;-78
2022/09/28 08:58:07;;;;;;;20.20;9.15;;;;;;;7.68;100.00;98295.66;5005000;28;20033;-79
2022/09/28 09:00:44;;;;;;;20.73;8.98;;;;;;;7.78;100.00;98293.13;5012416;28;20078;-78
2022/09/28 09:03:12;;;;;;;;;;;;;;;7.87;100.00;98290.19;4978708;28;20050;-79
2022/09/28 09:06:01;;;;;;;25.38;10.18;;;;;;;7.94;100.00;98295.75;4994708;28;20004;-78
2022/09/28 09:08:38;;;;;;;20.33;8.75;;;;;;;7.86;100.00;98304.88;5011953;28;20390;-78
2022/09/28 09:11:28;;;;;;;20.13;8.93;;;;;;;8.13;100.00;98309.22;5012138;28;20026;-79
2022/09/28 09:14:23;;;;;;;18.40;8.55;;;;;;;8.25;100.00;98312.91;4994472;28;20038;-78
2022/09/28 09:17:19;;;;;;;19.92;9.52;;;;;;;8.38;100.00;98308.88;5012744;28;20029;-79
2022/09/28 09:20:01;;;;;;;14.63;7.25;;;;;;;8.36;100.00;98313.88;4981554;28;20483;-79
2022/09/28 09:22:40;;;;;;;16.60;8.02;;;;;;;8.41;100.00;98319.00;5011816;28;20057;-79
2022/09/28 09:25:46;;;;;;;12.23;6.45;;;;;;;8.45;99.38;98319.84;5012511;28;20076;-79
2022/09/28 09:28:50;;;;;;;14.27;7.38;;;;;;;8.34;100.00;98322.38;4933539;29;20032;-79
2022/09/28 09:31:41;;;;;;;15.85;7.72;;;;;;;8.56;99.99;98315.34;5013620;28;20042;-79
2022/09/28 09:34:35;;;;;;;12.25;6.72;;;;;;;8.40;98.58;98320.94;5011224;28;20105;-81
2022/09/28 09:37:44;;;;;;;14.30;6.47;;;;;;;8.56;98.74;98320.00;5016268;28;20106;-78
2022/09/28 09:40:56;;;;;;;10.43;5.63;;;;;;;8.76;98.58;98324.19;4998169;28;20022;-80
2022/09/28 09:43:45;;;;;;;10.48;6.10;;;;;;;9.29;97.99;98324.13;4973209;28;20133;-78
2022/09/28 09:46:32;;;;;;;10.80;6.00;;;;;;;9.19;95.65;98319.34;5015167;28;20037;-78
2022/09/28 09:49:05;;;;;;;11.52;6.22;;;;;;;9.25;96.25;98324.09;5000570;28;20708;-78
2022/09/28 09:51:49;;;;;;;9.57;5.50;;;;;;;9.37;94.14;98323.03;4998816;28;20033;-80
2022/09/28 09:54:24;;;;;;;11.23;5.90;;;;;;;9.76;93.26;98330.88;5016705;28;20026;-79
2022/09/28 09:56:55;;;;;;;10.13;5.15;;;;;;;9.74;92.16;98323.09;5016326;28;20029;-79
2022/09/28 09:59:32;;;;;;;9.15;4.38;;;;;;;9.61;92.38;98324.50;5015489;28;20026;-79
2022/09/28 10:02:11;;;;;;;7.65;4.45;;;;;;;9.50;92.94;98327.09;5015305;28;20026;-79
2022/09/28 10:04:43;;;;;;;8.98;4.20;;;;;;;9.64;92.25;98331.91;5015797;28;20052;-79
2022/09/28 10:07:18;;;;;;;8.05;4.13;;;;;;;9.42;93.29;98330.09;5015878;28;20017;-78
2022/09/28 10:09:45;;;;;;;7.80;4.05;;;;;;;9.32;94.16;98329.59;5015847;28;20031;-80
2022/09/28 10:12:17;;;;;;;7.85;3.97;;;;;;;9.25;94.81;98328.75;4998279;28;20056;-78
2022/09/28 10:14:42;;;;;;;10.75;4.47;;;;;;;9.30;95.15;98331.91;4997822;28;20379;-78
2022/09/28 10:17:13;;;;;;;9.70;4.60;;;;;;;9.34;94.14;98337.38;5015279;28;20033;-78
2022/09/28 10:19:38;;;;;;;7.60;4.03;;;;;;;9.25;95.21;98328.75;4997679;28;20030;-79
2022/09/28 10:22:05;;;;;;;9.05;4.55;;;;;;;9.25;94.55;98336.88;4998048;28;20034;-78
2022/09/28 10:24:53;;;;;;;7.35;4.10;;;;;;;9.19;93.79;98333.69;4997755;28;20402;-79
2022/09/28 10:27:34;;;;;;;8.10;3.92;;;;;;;9.25;93.35;98334.94;4998130;28;20026;-79
2022/09/28 10:30:14;;;;;;;7.32;3.78;;;;;;;9.26;93.70;98336.50;5015278;28;20048;-79
2022/09/28 10:32:43;;;;;;;7.93;4.45;;;;;;;9.33;94.42;98336.59;5016094;28;20104;-79
2022/09/28 10:35:17;;;;;;;8.75;4.30;;;;;;;9.43;94.17;98335.16;5015150;28;20028;-78
2022/09/28 10:38:17;;;;;;;10.38;4.18;;;;;;;9.48;94.15;98337.56;5015536;28;20033;-78
2022/09/28 10:40:53;;;;;;;8.70;4.15;;;;;;;9.50;92.92;98345.34;5014892;28;20128;-79
2022/09/28 10:43:32;;;;;;;9.05;3.70;;;;;;;9.55;93.31;98345.78;5015459;28;20022;-78
2022/09/28 10:46:11;;;;;;;7.68;4.68;;;;;;;9.57;93.03;98348.13;5014485;28;20097;-79
2022/09/28 10:48:51;;;;;;;7.60;3.90;;;;;;;9.62;92.77;98347.81;5014576;28;20073;-79
2022/09/28 10:51:18;;;;;;;15.25;4.38;;;;;;;9.71;92.67;98344.78;5015925;28;20041;-79
2022/09/28 10:53:59;;;;;;;7.18;4.13;;;;;;;10.09;92.00;98343.66;5014742;28;20034;-79
2022/09/28 10:56:27;;;;;;;6.25;3.53;;;;;;;10.36;90.31;98338.84;5014665;28;20037;-79
2022/09/28 10:58:54;;;;;;;8.25;3.50;;;;;;;10.46;88.59;98335.44;5013661;28;20451;-78
2022/09/28 11:01:24;;;;;;;5.13;2.80;;;;;;;10.79;87.98;98340.75;5013984;28;20097;-78
2022/09/28 11:03:59;;;;;;;6.25;2.50;;;;;;;11.03;85.70;98339.34;5013944;28;20379;-78
2022/09/28 11:06:29;;;;;;;5.45;2.67;;;;;;;11.05;85.84;98345.19;4996590;28;20095;-78
2022/09/28 11:08:58;;;;;;;5.20;2.25;;;;;;;10.71;84.80;98344.56;4996465;28;20069;-79
2022/09/28 11:11:24;;;;;;;4.90;2.50;;;;;;;10.65;85.48;98339.88;5014476;28;20030;-78
2022/09/28 11:13:56;;;;;;;6.35;3.70;;;;;;;10.62;85.11;98337.91;4996049;28;20030;-79
2022/09/28 11:16:34;;;;;;;4.78;2.47;;;;;;;10.35;85.63;98340.00;4996577;28;20639;-79
2022/09/28 11:19:28;;;;;;;6.00;3.10;;;;;;;10.32;86.27;98340.78;5013922;28;20072;-79
2022/09/28 11:21:54;;;;;;;6.70;3.10;;;;;;;10.34;86.35;98347.41;5013853;28;20106;-79
2022/09/28 11:24:21;;;;;;;6.82;3.25;;;;;;;10.40;86.19;98343.16;5014173;28;20081;-79
2022/09/28 11:26:51;;;;;;;10.65;4.97;;;;;;;10.33;86.75;98332.22;5014471;28;20052;-78
2022/09/28 11:29:39;;;;;;;6.70;2.90;;;;;;;10.28;86.99;98346.19;5014348;28;20022;-78
2022/09/28 11:32:06;;;;;;;4.85;2.88;;;;;;;10.32;87.46;98336.09;4996082;28;20487;-79
2022/09/28 11:34:37;;;;;;;4.95;2.80;;;;;;;10.21;87.63;98344.16;5013999;28;20081;-79
2022/09/28 11:37:44;;;;;;;5.47;2.78;;;;;;;10.20;88.44;98345.28;5014167;28;20401;-79
2022/09/28 11:40:51;;;;;;;5.38;2.42;;;;;;;10.54;87.84;98354.16;5005862;28;20037;-79
2022/09/28 11:43:48;;;;;;;5.72;2.58;;;;;;;10.31;88.90;98344.66;4990812;28;20041;-79
2022/09/28 11:46:31;;;;;;;4.30;2.00;;;;;;;10.20;88.02;98349.94;5013369;28;20128;-79
2022/09/28 11:49:16;;;;;;;4.60;2.20;;;;;;;10.14;87.79;98357.69;5013592;28;20294;-79
2022/09/28 11:51:44;;;;;;;3.88;1.85;;;;;;;10.24;88.38;98348.06;4995673;28;20034;-79
2022/09/28 11:54:27;;;;;;;5.47;1.90;;;;;;;10.11;88.35;98350.28;4980135;28;20175;-79
2022/09/28 11:56:58;;;;;;;5.68;2.80;;;;;;;9.99;89.48;98355.19;4995864;28;20033;-79
2022/09/28 11:59:35;;;;;;;5.97;3.08;;;;;;;9.91;90.57;98354.34;5012606;28;20474;-80